Terminal Aerodrome Forecast
Issued by NWS

Home | Current Version | Previous Version | Text Only | Print | Product List | Glossary On
Versions: 1 2 3 4 5 6 7 8 9 10 11 12 13 14
000
FTUS42 KMLB 290700 AAA
TAFSFB
TAF AMD
KSFB 290737Z 2908/3006 00000KT P6SM SCT015 BKN025
      TEMPO 2908/2910 BKN015 BKN025
     FM291500 13006KT P6SM SCT040
     FM292000 12008KT P6SM VCTS SCT030CB BKN060=

USA.gov is the U.S. government's official web portal to all federal, state and local government web resources and services.